createdAt,value
2023-02-15T00:00:31.805Z,317
2023-02-15T00:01:03.441Z,317
2023-02-15T00:01:33.452Z,317
2023-02-15T00:01:51.453Z,317
2023-02-15T00:02:24.327Z,317
2023-02-15T00:02:41.294Z,317
2023-02-15T00:03:11.471Z,317
2023-02-15T00:03:33.374Z,317
2023-02-15T00:03:59.388Z,317
2023-02-15T00:04:32.128Z,317
2023-02-15T00:05:03.646Z,317
2023-02-15T00:05:34.393Z,317
2023-02-15T00:06:07.435Z,317
2023-02-15T00:06:33.503Z,317
2023-02-15T00:06:55.425Z,317
2023-02-15T00:07:27.411Z,317
2023-02-15T00:08:00.164Z,317
2023-02-15T00:08:31.408Z,317
2023-02-15T00:09:04.299Z,317
2023-02-15T00:09:35.214Z,317
2023-02-15T00:10:08.417Z,317
2023-02-15T00:10:34.427Z,317
2023-02-15T00:10:55.528Z,317
2023-02-15T00:11:27.398Z,317
2023-02-15T00:11:59.385Z,317
2023-02-15T00:12:31.392Z,317
2023-02-15T00:13:04.157Z,317
2023-02-15T00:13:35.216Z,317
2023-02-15T00:14:08.239Z,317
2023-02-15T00:14:34.396Z,317
2023-02-15T00:14:55.417Z,317
2023-02-15T00:15:27.730Z,317
2023-02-15T00:15:59.601Z,317
2023-02-15T00:16:31.440Z,317
2023-02-15T00:17:03.433Z,317
2023-02-15T00:17:34.423Z,317
2023-02-15T00:18:07.500Z,317
2023-02-15T00:18:34.404Z,317
2023-02-15T00:18:55.437Z,317
2023-02-15T00:19:28.120Z,317
2023-02-15T00:19:59.430Z,317
2023-02-15T00:20:32.383Z,317
2023-02-15T00:21:03.424Z,317
2023-02-15T00:21:35.130Z,317
2023-02-15T00:22:07.522Z,317
2023-02-15T00:22:34.383Z,317
2023-02-15T00:22:55.459Z,317
2023-02-15T00:23:27.441Z,317
2023-02-15T00:24:00.153Z,317
2023-02-15T00:24:31.374Z,317
2023-02-15T00:25:04.378Z,317
2023-02-15T00:25:34.441Z,317
2023-02-15T00:26:08.291Z,317
2023-02-15T00:26:34.464Z,317
2023-02-15T00:26:55.442Z,317
2023-02-15T00:27:27.505Z,317
2023-02-15T00:27:59.453Z,317
2023-02-15T00:28:31.371Z,317
2023-02-15T00:29:03.405Z,317
2023-02-15T00:29:34.368Z,317
2023-02-15T00:30:07.742Z,317
2023-02-15T00:30:34.507Z,317
2023-02-15T00:30:55.665Z,317
2023-02-15T00:31:28.314Z,32
2023-02-15T00:31:59.538Z,32
2023-02-15T00:32:32.290Z,29
2023-02-15T00:33:03.462Z,29
2023-02-15T00:33:35.685Z,29
2023-02-15T00:34:07.626Z,29
2023-02-15T00:34:34.385Z,29
2023-02-15T00:34:55.440Z,29
2023-02-15T00:35:27.991Z,29
2023-02-15T00:36:00.705Z,29
2023-02-15T00:36:31.432Z,29
2023-02-15T00:37:04.234Z,29
2023-02-15T00:37:34.415Z,29
2023-02-15T00:38:08.267Z,29
2023-02-15T00:38:34.941Z,29
2023-02-15T00:38:55.487Z,29
2023-02-15T00:39:27.538Z,29
2023-02-15T00:39:59.516Z,32
2023-02-15T00:40:31.521Z,32
2023-02-15T00:41:03.503Z,32
2023-02-15T00:41:34.437Z,32
2023-02-15T00:42:07.532Z,32
2023-02-15T00:42:34.890Z,32
2023-02-15T00:42:55.445Z,32
2023-02-15T00:43:28.224Z,32
2023-02-15T00:43:59.423Z,32
2023-02-15T00:44:32.241Z,32
2023-02-15T00:45:03.672Z,32
2023-02-15T00:45:35.263Z,32
2023-02-15T00:46:07.534Z,32
2023-02-15T00:46:34.440Z,32
2023-02-15T00:46:55.428Z,32
2023-02-15T00:47:27.514Z,32
2023-02-15T00:48:00.296Z,32
2023-02-15T00:48:31.436Z,32
2023-02-15T00:49:04.263Z,32
2023-02-15T00:49:34.402Z,32
2023-02-15T00:50:08.372Z,32
2023-02-15T00:50:34.971Z,32
2023-02-15T00:50:55.580Z,32
2023-02-15T00:51:27.488Z,32
2023-02-15T00:51:59.461Z,32
2023-02-15T00:52:31.418Z,32
2023-02-15T00:53:03.453Z,32
2023-02-15T00:53:35.170Z,32
2023-02-15T00:54:07.447Z,32
2023-02-15T00:54:34.395Z,32
2023-02-15T00:54:55.461Z,32
2023-02-15T00:55:27.614Z,32
2023-02-15T00:56:00.724Z,32
2023-02-15T00:56:31.444Z,32
2023-02-15T00:57:04.210Z,32
2023-02-15T00:57:34.488Z,32
2023-02-15T00:58:08.633Z,32
2023-02-15T00:58:34.398Z,32
2023-02-15T00:58:55.427Z,32
2023-02-15T00:59:27.471Z,32
2023-02-15T00:59:59.430Z,32
2023-02-15T01:00:31.610Z,32
2023-02-15T01:01:03.492Z,32
2023-02-15T01:01:34.430Z,32
2023-02-15T01:02:07.457Z,358
2023-02-15T01:02:34.380Z,353
2023-02-15T01:02:55.440Z,353
2023-02-15T01:03:28.279Z,353
2023-02-15T01:03:59.463Z,353
2023-02-15T01:04:32.231Z,42
2023-02-15T01:05:03.577Z,37
2023-02-15T01:05:35.274Z,29
2023-02-15T01:06:07.458Z,30
2023-02-15T01:06:34.438Z,30
2023-02-15T01:06:55.446Z,34
2023-02-15T01:07:27.474Z,34
2023-02-15T01:08:00.184Z,34
2023-02-15T01:08:31.485Z,34
2023-02-15T01:09:04.326Z,34
2023-02-15T01:09:34.474Z,34
2023-02-15T01:09:51.492Z,34
2023-02-15T01:10:23.606Z,34
2023-02-15T01:10:40.608Z,38
2023-02-15T01:11:12.315Z,32
2023-02-15T01:11:34.411Z,32
2023-02-15T01:11:59.602Z,40
2023-02-15T01:12:31.497Z,36
2023-02-15T01:13:04.220Z,32
2023-02-15T01:13:34.446Z,32
2023-02-15T01:14:08.336Z,38
2023-02-15T01:14:34.504Z,37
2023-02-15T01:14:55.716Z,38
2023-02-15T01:15:27.696Z,38
2023-02-15T01:15:59.741Z,44
2023-02-15T01:16:31.410Z,44
2023-02-15T01:17:03.455Z,44
2023-02-15T01:17:34.419Z,44
2023-02-15T01:18:07.546Z,29
2023-02-15T01:18:34.840Z,29
2023-02-15T01:18:55.532Z,29
2023-02-15T01:19:28.269Z,29
2023-02-15T01:19:59.533Z,29
2023-02-15T01:20:32.437Z,29
2023-02-15T01:21:03.549Z,29
2023-02-15T01:21:35.424Z,29
2023-02-15T01:22:07.571Z,29
2023-02-15T01:22:34.755Z,29
2023-02-15T01:22:55.503Z,29
2023-02-15T01:23:27.487Z,29
2023-02-15T01:24:00.283Z,29
2023-02-15T01:24:31.451Z,29
2023-02-15T01:25:04.864Z,29
2023-02-15T01:25:34.547Z,29
2023-02-15T01:26:08.311Z,29
2023-02-15T01:26:34.428Z,29
2023-02-15T01:26:55.515Z,29
2023-02-15T01:27:27.443Z,29
2023-02-15T01:27:59.504Z,29
2023-02-15T01:28:31.471Z,29
2023-02-15T01:29:03.474Z,29
2023-02-15T01:29:34.407Z,29
2023-02-15T01:30:07.782Z,29
2023-02-15T01:30:34.406Z,29
2023-02-15T01:30:55.620Z,29
2023-02-15T01:31:28.358Z,29
2023-02-15T01:31:59.633Z,29
2023-02-15T01:32:32.297Z,29
2023-02-15T01:33:03.495Z,29
2023-02-15T01:33:35.748Z,29
2023-02-15T01:34:07.549Z,29
2023-02-15T01:34:34.398Z,29
2023-02-15T01:34:55.498Z,29
2023-02-15T01:35:28.043Z,29
2023-02-15T01:36:00.833Z,29
2023-02-15T01:36:31.505Z,29
2023-02-15T01:37:04.273Z,29
2023-02-15T01:37:35.257Z,29
2023-02-15T01:38:08.310Z,29
2023-02-15T01:38:34.383Z,29
2023-02-15T01:38:55.507Z,29
2023-02-15T01:39:27.543Z,29
2023-02-15T01:39:59.806Z,29
2023-02-15T01:40:31.971Z,29
2023-02-15T01:41:03.661Z,29
2023-02-15T01:41:34.395Z,29
2023-02-15T01:41:51.527Z,29
2023-02-15T01:42:24.176Z,29
2023-02-15T01:42:41.299Z,29
2023-02-15T01:43:11.509Z,29
2023-02-15T01:43:34.655Z,29
2023-02-15T01:43:59.542Z,29
2023-02-15T01:44:32.216Z,29
2023-02-15T01:45:03.752Z,29
2023-02-15T01:45:36.102Z,29
2023-02-15T01:46:07.617Z,29
2023-02-15T01:46:34.462Z,29
2023-02-15T01:46:55.514Z,29
2023-02-15T01:48:00.188Z,29
2023-02-15T01:48:31.474Z,29
2023-02-15T01:49:04.157Z,29
2023-02-15T01:49:34.728Z,29
2023-02-15T01:50:07.053Z,29
2023-02-15T01:50:24.121Z,41
2023-02-15T01:50:41.509Z,42
2023-02-15T01:51:11.429Z,39
2023-02-15T01:51:34.474Z,37
2023-02-15T01:51:59.472Z,37
2023-02-15T01:52:32.403Z,38
2023-02-15T01:53:03.504Z,38
2023-02-15T01:53:35.250Z,38
2023-02-15T01:54:07.472Z,38
2023-02-15T01:54:34.819Z,38
2023-02-15T01:54:55.510Z,37
2023-02-15T01:55:27.661Z,37
2023-02-15T01:56:00.654Z,37
2023-02-15T01:56:31.477Z,37
2023-02-15T01:57:04.146Z,38
2023-02-15T01:57:34.895Z,37
2023-02-15T01:57:51.464Z,37
2023-02-15T01:58:23.857Z,37
2023-02-15T01:58:40.975Z,38
2023-02-15T01:59:12.164Z,37
2023-02-15T01:59:34.421Z,37
2023-02-15T01:59:59.761Z,37
2023-02-15T02:00:31.665Z,37
2023-02-15T02:01:03.597Z,37
2023-02-15T02:01:34.437Z,37
2023-02-15T02:01:51.550Z,37
2023-02-15T02:02:24.190Z,37
2023-02-15T02:02:41.371Z,37
2023-02-15T02:03:11.511Z,37
2023-02-15T02:03:34.406Z,37
2023-02-15T02:03:59.596Z,37
2023-02-15T02:04:32.252Z,37
2023-02-15T02:05:03.667Z,37
2023-02-15T02:05:35.271Z,37
2023-02-15T02:06:07.500Z,37
2023-02-15T02:06:34.459Z,37
2023-02-15T02:06:55.591Z,37
2023-02-15T02:07:27.537Z,37
2023-02-15T02:08:00.207Z,37
2023-02-15T02:08:31.641Z,37
2023-02-15T02:09:04.286Z,37
2023-02-15T02:09:34.470Z,37
2023-02-15T02:09:51.488Z,37
2023-02-15T02:10:23.769Z,38
2023-02-15T02:10:40.634Z,38
2023-02-15T02:11:12.203Z,38
2023-02-15T02:11:34.406Z,37
2023-02-15T02:11:59.516Z,38
2023-02-15T02:12:31.697Z,37
2023-02-15T02:13:04.203Z,37
2023-02-15T02:13:34.730Z,37
2023-02-15T02:13:51.680Z,37
2023-02-15T02:14:23.520Z,37
2023-02-15T02:14:40.635Z,37
2023-02-15T02:15:12.585Z,37
2023-02-15T02:15:34.477Z,37
2023-02-15T02:16:00.250Z,37
2023-02-15T02:16:31.470Z,37
2023-02-15T02:17:03.530Z,37
2023-02-15T02:17:34.801Z,37
2023-02-15T02:17:51.314Z,37
2023-02-15T02:18:24.281Z,37
2023-02-15T02:18:41.405Z,37
2023-02-15T02:19:13.804Z,37
2023-02-15T02:19:35.276Z,37
2023-02-15T02:19:59.483Z,37
2023-02-15T02:20:32.451Z,37
2023-02-15T02:21:03.574Z,37
2023-02-15T02:21:35.654Z,37
2023-02-15T02:22:07.619Z,37
2023-02-15T02:22:34.439Z,37
2023-02-15T02:22:55.484Z,37
2023-02-15T02:23:27.570Z,37
2023-02-15T02:24:00.352Z,37
2023-02-15T02:24:31.510Z,37
2023-02-15T02:25:04.502Z,38
2023-02-15T02:25:34.443Z,38
2023-02-15T02:25:51.722Z,38
2023-02-15T02:26:23.556Z,37
2023-02-15T02:26:40.662Z,37
2023-02-15T02:27:12.307Z,37
2023-02-15T02:27:34.399Z,37
2023-02-15T02:27:59.511Z,37
2023-02-15T02:28:31.520Z,37
2023-02-15T02:29:03.512Z,37
2023-02-15T02:29:34.391Z,37
2023-02-15T02:29:51.597Z,37
2023-02-15T02:30:24.722Z,37
2023-02-15T02:30:41.542Z,37
2023-02-15T02:31:11.612Z,37
2023-02-15T02:31:34.545Z,37
2023-02-15T02:31:59.787Z,37
2023-02-15T02:32:32.418Z,37
2023-02-15T02:33:03.670Z,37
2023-02-15T02:33:35.089Z,37
2023-02-15T02:34:07.631Z,37
2023-02-15T02:34:34.487Z,37
2023-02-15T02:34:55.519Z,37
2023-02-15T02:35:27.742Z,37
2023-02-15T02:36:00.647Z,37
2023-02-15T02:36:31.509Z,37
2023-02-15T02:37:04.233Z,38
2023-02-15T02:37:34.369Z,38
2023-02-15T02:37:51.499Z,38
2023-02-15T02:38:23.542Z,38
2023-02-15T02:38:40.702Z,38
2023-02-15T02:39:12.369Z,37
2023-02-15T02:39:34.434Z,38
2023-02-15T02:39:59.782Z,38
2023-02-15T02:40:31.953Z,38
2023-02-15T02:41:03.502Z,37
2023-02-15T02:41:34.467Z,38
2023-02-15T02:41:51.490Z,38
2023-02-15T02:42:24.408Z,38
2023-02-15T02:42:41.466Z,37
2023-02-15T02:43:11.489Z,38
2023-02-15T02:43:34.420Z,38
2023-02-15T02:43:59.509Z,38
2023-02-15T02:44:32.329Z,37
2023-02-15T02:45:03.931Z,38
2023-02-15T02:45:35.788Z,37
2023-02-15T02:46:07.697Z,28
2023-02-15T02:46:34.487Z,29
2023-02-15T02:46:55.597Z,29
2023-02-15T02:47:27.600Z,29
2023-02-15T02:48:16.700Z,29
2023-02-15T02:48:34.466Z,29
2023-02-15T02:49:03.591Z,29
2023-02-15T02:49:34.429Z,29
2023-02-15T02:50:07.731Z,29
2023-02-15T02:50:34.435Z,29
2023-02-15T02:51:11.995Z,29
2023-02-15T02:51:34.504Z,29
2023-02-15T02:51:59.539Z,29
2023-02-15T02:52:32.344Z,29
2023-02-15T02:53:03.541Z,29
2023-02-15T02:53:35.133Z,29
2023-02-15T02:53:51.592Z,29
2023-02-15T02:54:23.675Z,29
2023-02-15T02:54:41.566Z,29
2023-02-15T02:55:11.611Z,29
2023-02-15T02:55:35.125Z,29
2023-02-15T02:56:00.021Z,29
2023-02-15T02:56:31.523Z,29
2023-02-15T02:57:04.380Z,29
2023-02-15T02:57:35.134Z,29
2023-02-15T02:57:51.672Z,29
2023-02-15T02:58:23.602Z,29
2023-02-15T02:58:41.091Z,29
2023-02-15T02:59:12.343Z,29
2023-02-15T02:59:34.479Z,29
2023-02-15T02:59:59.560Z,29
2023-02-15T03:00:31.786Z,29
2023-02-15T03:01:03.553Z,29
2023-02-15T03:01:34.872Z,29
2023-02-15T03:02:07.054Z,29
2023-02-15T03:02:24.216Z,29
2023-02-15T03:02:41.985Z,29
2023-02-15T03:03:11.885Z,29
2023-02-15T03:03:34.412Z,29
2023-02-15T03:03:59.552Z,29
2023-02-15T03:04:32.238Z,29
2023-02-15T03:05:03.703Z,29
2023-02-15T03:05:35.325Z,29
2023-02-15T03:06:07.625Z,29
2023-02-15T03:06:34.430Z,29
2023-02-15T03:06:55.551Z,29
2023-02-15T03:07:27.553Z,29
2023-02-15T03:08:00.331Z,29
2023-02-15T03:08:31.542Z,29
2023-02-15T03:09:04.399Z,29
2023-02-15T03:09:34.403Z,29
2023-02-15T03:09:51.579Z,29
2023-02-15T03:10:23.978Z,29
2023-02-15T03:10:41.013Z,29
2023-02-15T03:11:12.201Z,29
2023-02-15T03:11:34.460Z,29
2023-02-15T03:11:59.559Z,29
2023-02-15T03:12:31.554Z,29
2023-02-15T03:13:04.368Z,29
2023-02-15T03:13:34.452Z,29
2023-02-15T03:13:51.534Z,29
2023-02-15T03:14:23.547Z,29
2023-02-15T03:14:40.763Z,29
2023-02-15T03:15:12.509Z,29
2023-02-15T03:15:34.410Z,29
2023-02-15T03:15:59.840Z,29
2023-02-15T03:16:31.676Z,29
2023-02-15T03:17:03.531Z,29
2023-02-15T03:17:34.412Z,29
2023-02-15T03:18:07.804Z,29
2023-02-15T03:18:34.438Z,29
2023-02-15T03:18:55.591Z,29
2023-02-15T03:19:28.371Z,29
2023-02-15T03:19:59.646Z,29
2023-02-15T03:20:32.510Z,29
2023-02-15T03:21:03.591Z,29
2023-02-15T03:21:35.123Z,29
2023-02-15T03:21:51.634Z,29
2023-02-15T03:22:23.577Z,29
2023-02-15T03:22:41.449Z,29
2023-02-15T03:23:11.586Z,29
2023-02-15T03:23:34.515Z,29
2023-02-15T03:23:59.540Z,29
2023-02-15T03:24:31.577Z,29
2023-02-15T03:25:04.464Z,29
2023-02-15T03:25:34.410Z,29
2023-02-15T03:25:51.769Z,29
2023-02-15T03:26:23.618Z,29
2023-02-15T03:26:40.773Z,29
2023-02-15T03:27:12.277Z,29
2023-02-15T03:27:34.551Z,28
2023-02-15T03:27:59.548Z,28
2023-02-15T03:28:31.590Z,29
2023-02-15T03:29:03.598Z,29
2023-02-15T03:29:34.462Z,29
2023-02-15T03:29:51.631Z,29
2023-02-15T03:30:24.617Z,29
2023-02-15T03:30:41.466Z,29
2023-02-15T03:31:11.781Z,29
2023-02-15T03:31:34.627Z,29
2023-02-15T03:31:59.694Z,29
2023-02-15T03:32:32.257Z,29
2023-02-15T03:33:03.571Z,29
2023-02-15T03:33:35.228Z,29
2023-02-15T03:34:07.652Z,29
2023-02-15T03:34:34.423Z,29
2023-02-15T03:34:55.637Z,29
2023-02-15T03:35:27.793Z,29
2023-02-15T03:36:00.935Z,29
2023-02-15T03:36:31.551Z,29
2023-02-15T03:37:06.186Z,29
2023-02-15T03:37:34.394Z,29
2023-02-15T03:37:51.673Z,29
2023-02-15T03:38:23.632Z,29
2023-02-15T03:38:40.735Z,29
2023-02-15T03:39:12.923Z,29
2023-02-15T03:39:34.583Z,29
2023-02-15T03:39:59.595Z,29
2023-02-15T03:40:31.693Z,29
2023-02-15T03:41:03.619Z,29
2023-02-15T03:41:34.433Z,28
2023-02-15T03:41:51.564Z,29
2023-02-15T03:42:24.338Z,29
2023-02-15T03:42:41.384Z,29
2023-02-15T03:43:11.551Z,29
2023-02-15T03:43:34.456Z,29
2023-02-15T03:43:59.648Z,29
2023-02-15T03:44:32.327Z,29
2023-02-15T03:45:03.870Z,29
2023-02-15T03:45:35.218Z,29
2023-02-15T03:46:07.632Z,29
2023-02-15T03:46:35.014Z,29
2023-02-15T03:46:55.675Z,29
2023-02-15T03:47:27.565Z,29
2023-02-15T03:48:00.358Z,29
2023-02-15T03:48:31.631Z,29
2023-02-15T03:49:04.344Z,29
2023-02-15T03:49:34.398Z,28
2023-02-15T03:49:51.571Z,21
2023-02-15T03:50:23.753Z,19
2023-02-15T03:50:40.824Z,19
2023-02-15T03:51:12.311Z,19
2023-02-15T03:51:34.545Z,19
2023-02-15T03:51:59.619Z,19
2023-02-15T03:52:31.603Z,19
2023-02-15T03:53:03.636Z,19
2023-02-15T03:53:34.393Z,19
2023-02-15T03:53:51.579Z,19
2023-02-15T03:54:24.382Z,19
2023-02-15T03:54:41.526Z,19
2023-02-15T03:55:12.055Z,19
2023-02-15T03:55:34.927Z,19
2023-02-15T03:56:00.050Z,19
2023-02-15T03:56:32.284Z,19
2023-02-15T03:57:03.620Z,19
2023-02-15T03:57:35.317Z,19
2023-02-15T03:58:07.617Z,19
2023-02-15T03:58:34.887Z,19
2023-02-15T03:58:55.609Z,19
2023-02-15T03:59:27.670Z,19
2023-02-15T04:00:00.591Z,19
2023-02-15T04:00:31.580Z,19
2023-02-15T04:01:04.473Z,19
2023-02-15T04:01:34.486Z,19
2023-02-15T04:01:51.582Z,19
2023-02-15T04:02:23.603Z,19
2023-02-15T04:02:40.757Z,19
2023-02-15T04:03:12.450Z,19
2023-02-15T04:03:34.417Z,19
2023-02-15T04:03:59.618Z,19
2023-02-15T04:04:31.611Z,19
2023-02-15T04:05:03.787Z,19
2023-02-15T04:05:34.446Z,19
2023-02-15T04:05:51.794Z,19
2023-02-15T04:06:24.274Z,18
2023-02-15T04:06:41.394Z,18
2023-02-15T04:07:11.591Z,18
2023-02-15T04:07:34.443Z,18
2023-02-15T04:07:59.668Z,18
2023-02-15T04:08:32.420Z,18
2023-02-15T04:09:03.755Z,19
2023-02-15T04:09:35.224Z,19
2023-02-15T04:10:07.822Z,19
2023-02-15T04:10:34.758Z,19
2023-02-15T04:10:55.773Z,19
2023-02-15T04:11:27.595Z,19
2023-02-15T04:11:59.611Z,19
2023-02-15T04:12:31.605Z,19
2023-02-15T04:13:04.419Z,19
2023-02-15T04:13:34.420Z,19
2023-02-15T04:13:51.517Z,19
2023-02-15T04:14:23.701Z,19
2023-02-15T04:14:41.215Z,19
2023-02-15T04:15:13.116Z,19
2023-02-15T04:15:34.434Z,19
2023-02-15T04:16:00.301Z,19
2023-02-15T04:16:31.662Z,19
2023-02-15T04:17:03.605Z,19
2023-02-15T04:17:34.431Z,19
2023-02-15T04:17:51.592Z,19
2023-02-15T04:18:24.405Z,19
2023-02-15T04:18:41.514Z,19
2023-02-15T04:19:11.578Z,19
2023-02-15T04:19:34.432Z,19
2023-02-15T04:19:59.644Z,19
2023-02-15T04:20:32.555Z,19
2023-02-15T04:21:03.657Z,19
2023-02-15T04:21:35.103Z,19
2023-02-15T04:21:51.639Z,19
2023-02-15T04:22:23.679Z,19
2023-02-15T04:22:41.496Z,19
2023-02-15T04:23:11.578Z,19
2023-02-15T04:23:34.392Z,19
2023-02-15T04:23:59.616Z,18
2023-02-15T04:24:31.575Z,18
2023-02-15T04:25:04.486Z,18
2023-02-15T04:25:34.384Z,18
2023-02-15T04:25:51.766Z,9
2023-02-15T04:26:23.621Z,9
2023-02-15T04:26:40.727Z,9
2023-02-15T04:27:12.343Z,9
2023-02-15T04:27:34.406Z,9
2023-02-15T04:27:59.609Z,9
2023-02-15T04:28:31.613Z,9
2023-02-15T04:29:03.649Z,9
2023-02-15T04:29:34.406Z,9
2023-02-15T04:29:51.694Z,9
2023-02-15T04:30:24.728Z,10
2023-02-15T04:30:41.601Z,10
2023-02-15T04:31:11.710Z,10
2023-02-15T04:31:34.595Z,10
2023-02-15T04:31:59.700Z,10
2023-02-15T04:32:32.397Z,10
2023-02-15T04:33:03.641Z,10
2023-02-15T04:33:35.239Z,10
2023-02-15T04:34:07.713Z,10
2023-02-15T04:34:34.428Z,10
2023-02-15T04:34:55.626Z,10
2023-02-15T04:35:27.931Z,10
2023-02-15T04:36:00.862Z,10
2023-02-15T04:36:31.608Z,10
2023-02-15T04:37:04.350Z,10
2023-02-15T04:37:34.404Z,10
2023-02-15T04:37:51.654Z,10
2023-02-15T04:38:23.623Z,10
2023-02-15T04:38:40.749Z,10
2023-02-15T04:39:12.494Z,10
2023-02-15T04:39:34.428Z,10
2023-02-15T04:39:59.626Z,10
2023-02-15T04:40:31.847Z,10
2023-02-15T04:41:03.717Z,10
2023-02-15T04:41:34.606Z,10
2023-02-15T04:42:07.676Z,10
2023-02-15T04:42:34.434Z,9
2023-02-15T04:42:55.653Z,9
2023-02-15T04:43:28.494Z,9
2023-02-15T04:43:59.631Z,9
2023-02-15T04:44:32.503Z,9
2023-02-15T04:45:03.879Z,9
2023-02-15T04:45:35.336Z,9
2023-02-15T04:45:51.914Z,9
2023-02-15T04:46:23.889Z,9
2023-02-15T04:46:41.552Z,9
2023-02-15T04:47:11.620Z,10
2023-02-15T04:47:34.423Z,10
2023-02-15T04:47:59.633Z,10
2023-02-15T04:48:31.796Z,10
2023-02-15T04:49:04.432Z,10
2023-02-15T04:49:34.433Z,10
2023-02-15T04:49:51.670Z,12
2023-02-15T04:50:23.821Z,29
2023-02-15T04:50:40.856Z,29
2023-02-15T04:51:12.437Z,29
2023-02-15T04:51:34.452Z,29
2023-02-15T04:51:59.660Z,28
2023-02-15T04:52:31.688Z,28
2023-02-15T04:53:03.687Z,28
2023-02-15T04:53:34.482Z,28
2023-02-15T04:53:51.661Z,28
2023-02-15T04:54:25.366Z,28
2023-02-15T04:54:42.635Z,28
2023-02-15T04:55:11.771Z,28
2023-02-15T04:55:34.458Z,28
2023-02-15T04:56:00.308Z,28
2023-02-15T04:56:32.406Z,28
2023-02-15T04:57:03.757Z,28
2023-02-15T04:57:35.148Z,28
2023-02-15T04:57:51.690Z,29
2023-02-15T04:58:23.645Z,28
2023-02-15T04:58:41.570Z,28
2023-02-15T04:59:11.701Z,28
2023-02-15T04:59:34.462Z,28
2023-02-15T04:59:59.625Z,28
2023-02-15T05:00:31.911Z,28
2023-02-15T05:01:04.570Z,29
2023-02-15T05:01:34.455Z,29
2023-02-15T05:01:51.631Z,29
2023-02-15T05:02:23.708Z,29
2023-02-15T05:02:40.789Z,29
2023-02-15T05:03:12.446Z,29
2023-02-15T05:03:34.432Z,28
2023-02-15T05:03:59.709Z,28
2023-02-15T05:04:31.865Z,28
2023-02-15T05:05:03.808Z,28
2023-02-15T05:05:34.459Z,28
2023-02-15T05:05:51.901Z,28
2023-02-15T05:06:24.453Z,28
2023-02-15T05:06:41.875Z,28
2023-02-15T05:07:11.669Z,28
2023-02-15T05:07:34.971Z,28
2023-02-15T05:07:59.904Z,28
2023-02-15T05:08:32.545Z,28
2023-02-15T05:09:03.646Z,28
2023-02-15T05:09:35.234Z,28
2023-02-15T05:09:51.752Z,28
2023-02-15T05:10:23.816Z,28
2023-02-15T05:10:41.602Z,28
2023-02-15T05:11:11.703Z,28
2023-02-15T05:11:34.450Z,28
2023-02-15T05:11:59.692Z,28
2023-02-15T05:12:31.728Z,28
2023-02-15T05:13:04.585Z,28
2023-02-15T05:13:34.878Z,28
2023-02-15T05:14:07.099Z,28
2023-02-15T05:14:24.401Z,28
2023-02-15T05:14:41.582Z,28
2023-02-15T05:15:11.922Z,28
2023-02-15T05:15:34.426Z,28
2023-02-15T05:16:00.118Z,28
2023-02-15T05:16:32.685Z,28
2023-02-15T05:17:03.713Z,28
2023-02-15T05:17:35.385Z,28
2023-02-15T05:18:07.885Z,28
2023-02-15T05:18:34.425Z,28
2023-02-15T05:18:55.753Z,28
2023-02-15T05:19:27.746Z,28
2023-02-15T05:20:01.733Z,28
2023-02-15T05:20:31.710Z,28
2023-02-15T05:21:04.525Z,28
2023-02-15T05:21:34.452Z,28
2023-02-15T05:21:51.679Z,28
2023-02-15T05:22:23.722Z,28
2023-02-15T05:22:40.847Z,28
2023-02-15T05:23:12.918Z,28
2023-02-15T05:23:34.431Z,28
2023-02-15T05:23:59.712Z,28
2023-02-15T05:24:31.669Z,28
2023-02-15T05:25:03.933Z,28
2023-02-15T05:25:34.470Z,28
2023-02-15T05:25:51.830Z,28
2023-02-15T05:26:25.463Z,28
2023-02-15T05:26:55.780Z,28
2023-02-15T05:27:28.508Z,28
2023-02-15T05:27:59.705Z,28
2023-02-15T05:28:32.379Z,28
2023-02-15T05:29:03.746Z,28
2023-02-15T05:29:35.247Z,28
2023-02-15T05:29:51.963Z,28
2023-02-15T05:30:24.171Z,28
2023-02-15T05:30:41.731Z,28
2023-02-15T05:31:11.897Z,28
2023-02-15T05:31:35.007Z,28
2023-02-15T05:31:59.958Z,28
2023-02-15T05:32:31.883Z,28
2023-02-15T05:33:05.519Z,28
2023-02-15T05:33:34.436Z,28
2023-02-15T05:33:51.706Z,28
2023-02-15T05:34:23.746Z,28
2023-02-15T05:34:40.856Z,28
2023-02-15T05:35:12.645Z,28
2023-02-15T05:35:34.449Z,28
2023-02-15T05:36:01.358Z,28
2023-02-15T05:36:32.294Z,28
2023-02-15T05:37:03.708Z,28
2023-02-15T05:37:35.142Z,28
2023-02-15T05:37:51.641Z,28
2023-02-15T05:38:23.681Z,28
2023-02-15T05:38:41.454Z,28
2023-02-15T05:39:11.779Z,28
2023-02-15T05:39:34.452Z,28
2023-02-15T05:39:59.693Z,28
2023-02-15T05:40:31.877Z,28
2023-02-15T05:41:04.344Z,28
2023-02-15T05:41:34.701Z,28
2023-02-15T05:42:06.873Z,28
2023-02-15T05:42:24.371Z,28
2023-02-15T05:42:41.523Z,28
2023-02-15T05:43:11.667Z,28
2023-02-15T05:43:34.455Z,28
2023-02-15T05:43:59.778Z,28
2023-02-15T05:44:32.515Z,28
2023-02-15T05:45:04.289Z,28
2023-02-15T05:45:35.157Z,28
2023-02-15T05:45:51.773Z,28
2023-02-15T05:46:23.828Z,28
2023-02-15T05:46:41.396Z,28
2023-02-15T05:47:11.757Z,28
2023-02-15T05:47:34.417Z,28
2023-02-15T05:47:59.772Z,28
2023-02-15T05:48:31.724Z,28
2023-02-15T05:49:04.375Z,28
2023-02-15T05:49:34.439Z,28
2023-02-15T05:49:51.740Z,28
2023-02-15T05:50:23.926Z,28
2023-02-15T05:50:40.894Z,29
2023-02-15T05:51:12.277Z,29
2023-02-15T05:51:34.483Z,29
2023-02-15T05:51:59.748Z,29
2023-02-15T05:52:31.705Z,28
2023-02-15T05:53:03.734Z,28
2023-02-15T05:53:34.429Z,28
2023-02-15T05:53:51.708Z,28
2023-02-15T05:54:24.242Z,28
2023-02-15T05:54:41.388Z,28
2023-02-15T05:55:11.855Z,28
2023-02-15T05:55:35.121Z,28
2023-02-15T05:56:00.905Z,28
2023-02-15T05:56:32.643Z,28
2023-02-15T05:57:03.720Z,28
2023-02-15T05:57:35.357Z,28
2023-02-15T05:57:51.826Z,28
2023-02-15T05:58:23.738Z,28
2023-02-15T05:58:41.572Z,28
2023-02-15T05:59:11.820Z,28
2023-02-15T05:59:34.452Z,28
2023-02-15T05:59:59.900Z,28
2023-02-15T06:00:32.062Z,28
2023-02-15T06:01:04.556Z,28
2023-02-15T06:01:34.608Z,28
2023-02-15T06:01:51.719Z,28
2023-02-15T06:02:23.905Z,28
2023-02-15T06:02:40.993Z,28
2023-02-15T06:03:12.660Z,28
2023-02-15T06:03:34.532Z,28
2023-02-15T06:03:59.771Z,28
2023-02-15T06:04:31.748Z,8
2023-02-15T06:05:03.888Z,8
2023-02-15T06:05:34.466Z,8
2023-02-15T06:05:51.896Z,8
2023-02-15T06:06:24.562Z,8
2023-02-15T06:06:41.654Z,8
2023-02-15T06:07:13.233Z,9
2023-02-15T06:07:34.439Z,9
2023-02-15T06:07:59.758Z,9
2023-02-15T06:08:32.545Z,9
2023-02-15T06:09:04.063Z,9
2023-02-15T06:09:35.356Z,9
2023-02-15T06:10:07.941Z,9
2023-02-15T06:10:35.154Z,9
2023-02-15T06:10:55.853Z,9
2023-02-15T06:11:27.800Z,9
2023-02-15T06:11:59.880Z,9
2023-02-15T06:12:31.760Z,9
2023-02-15T06:13:04.552Z,9
2023-02-15T06:13:37.912Z,9
2023-02-15T06:14:09.142Z,9
2023-02-15T06:14:34.448Z,9
2023-02-15T06:14:55.781Z,9
2023-02-15T06:15:35.299Z,9
2023-02-15T06:16:00.387Z,9
2023-02-15T06:16:31.734Z,9
2023-02-15T06:17:03.836Z,9
2023-02-15T06:17:34.427Z,9
2023-02-15T06:17:51.771Z,9
2023-02-15T06:18:24.551Z,9
2023-02-15T06:18:41.660Z,9
2023-02-15T06:19:11.964Z,9
2023-02-15T06:19:34.563Z,9
2023-02-15T06:19:59.806Z,9
2023-02-15T06:20:32.696Z,8
2023-02-15T06:21:03.862Z,8
2023-02-15T06:21:35.352Z,8
2023-02-15T06:21:51.881Z,8
2023-02-15T06:22:23.827Z,8
2023-02-15T06:22:41.734Z,9
2023-02-15T06:23:11.755Z,8
2023-02-15T06:23:34.446Z,8
2023-02-15T06:23:59.818Z,8
2023-02-15T06:24:31.891Z,9
2023-02-15T06:25:04.764Z,9
2023-02-15T06:25:36.577Z,9
2023-02-15T06:26:08.634Z,9
2023-02-15T06:26:34.437Z,9
2023-02-15T06:26:55.764Z,9
2023-02-15T06:27:27.783Z,9
2023-02-15T06:27:59.867Z,9
2023-02-15T06:28:31.836Z,9
2023-02-15T06:29:03.766Z,9
2023-02-15T06:29:34.494Z,9
2023-02-15T06:29:51.884Z,9
2023-02-15T06:30:24.886Z,9
2023-02-15T06:30:41.760Z,9
2023-02-15T06:31:11.914Z,9
2023-02-15T06:31:34.585Z,9
2023-02-15T06:32:00.001Z,9
2023-02-15T06:32:32.595Z,9
2023-02-15T06:33:03.805Z,9
2023-02-15T06:33:35.699Z,9
2023-02-15T06:34:07.861Z,9
2023-02-15T06:34:34.738Z,9
2023-02-15T06:34:55.874Z,9
2023-02-15T06:35:27.980Z,9
2023-02-15T06:36:01.024Z,9
2023-02-15T06:36:31.823Z,9
2023-02-15T06:37:04.612Z,9
2023-02-15T06:37:34.517Z,9
2023-02-15T06:37:51.871Z,9
2023-02-15T06:38:23.882Z,9
2023-02-15T06:38:40.912Z,9
2023-02-15T06:39:12.497Z,9
2023-02-15T06:39:34.553Z,10
2023-02-15T06:40:01.491Z,10
2023-02-15T06:40:32.308Z,10
2023-02-15T06:41:03.957Z,10